Latest Weather Observations for Sheoaks

IDV60801

Issued at 4:32 pm EDT Thursday 28 January 2021 (issued every 10 minutes, with the page automatically refreshed every 10 minutes)

About weather observations | Map of weather stations | Latest weather observations for VIC | Other Formats
Station Details ID: 087168 Name: SHEOAKS Lat: -37.91 Lon: 144.13 Height: 236.7 m
Data from the previous 72 hours. | See also: Recent months at Sheoaks
Date/Time
EDT
Temp
°C
App
Temp
°C
Dew
Point
°C
Rel
Hum
%
Delta-T
°C
Wind Press
QNH
hPa
Press
MSL
hPa
Rain since
9am
mm
Dir  Spd
km/h
Gust
km/h
Spd
kts
Gust
kts
28/04:30pm 21.1 19.1 14.0 64 4.2 ESE 17 26 9 14 1015.2 1014.5 -
28/04:00pm 21.1 18.5 13.8 63 4.3 ESE 20 28 11 15 1015.4 1014.7 -
28/03:30pm 21.5 18.9 13.9 62 4.5 ESE 20 32 11 17 1015.6 1014.9 -
28/02:30pm 22.1 19.6 14.2 61 4.7 ESE 20 28 11 15 1016.0 1015.2 0.0
28/02:00pm 22.0 19.9 14.6 63 4.4 ESE 19 28 10 15 1016.3 1015.5 0.0
28/01:30pm 21.5 19.4 14.6 65 4.1 ESE 19 28 10 15 1016.5 1015.7 0.0
28/01:00pm 20.9 18.5 14.3 66 3.9 ESE 20 30 11 16 1016.9 1016.2 0.0
28/12:30pm 20.2 17.7 14.1 68 3.6 ESE 20 28 11 15 1017.4 1016.7 0.0
28/12:00pm 19.9 17.3 13.8 68 3.5 ESE 20 33 11 18 1017.6 1016.9 0.0
28/11:30am 20.3 17.8 14.2 68 3.6 ESE 20 30 11 16 1017.7 1017.0 0.0
28/11:00am 19.8 17.3 14.2 70 3.3 E 20 28 11 15 1017.9 1017.2 0.0
28/10:30am 19.0 17.1 14.3 74 2.7 ESE 17 26 9 14 1018.0 1017.3 0.0
28/10:00am 18.3 15.7 13.8 75 2.6 ESE 20 28 11 15 1018.1 1017.4 0.0
28/09:30am 17.8 15.5 14.1 79 2.1 ESE 19 26 10 14 1018.2 1017.5 0.0
28/09:00am 17.3 14.7 13.8 80 2.0 ESE 20 28 11 15 1018.0 1017.3 0.0
28/08:30am 17.2 14.8 14.3 83 1.7 ESE 20 30 11 16 1017.8 1017.1 -
28/08:00am 16.0 14.3 13.7 86 1.3 ESE 15 24 8 13 1017.7 1017.0 -
28/07:30am 15.6 14.3 13.6 88 1.1 ESE 13 19 7 10 1017.4 1016.7 -
28/07:00am 14.8 12.9 13.0 89 1.0 ESE 15 24 8 13 1017.4 1016.7 -
28/06:30am 14.6 12.9 12.6 88 1.1 ESE 13 17 7 9 1017.1 1016.4 -
28/06:00am 14.8 12.4 12.7 87 1.2 ESE 17 24 9 13 1016.8 1016.0 -
28/05:30am 15.1 12.7 12.8 86 1.3 ESE 17 28 9 15 1016.5 1015.7 -
28/05:00am 15.2 12.5 12.9 86 1.3 ESE 19 24 10 13 1016.2 1015.4 -
28/04:30am 15.1 12.7 12.8 86 1.3 ESE 17 26 9 14 1016.1 1015.3 -
28/04:00am 15.4 12.7 12.9 85 1.4 ESE 19 28 10 15 1016.1 1015.3 -
28/03:30am 15.3 12.6 12.8 85 1.4 ESE 19 32 10 17 1016.0 1015.2 -
28/03:00am 15.3 12.3 12.6 84 1.5 ESE 20 28 11 15 1016.3 1015.5 -
28/02:30am 15.4 12.0 12.5 83 1.6 ESE 22 35 12 19 1016.4 1015.6 -
28/02:00am 15.5 10.6 12.4 82 1.7 ESE 30 44 16 24 1016.3 1015.5 -
28/01:30am 15.7 11.9 12.5 81 1.8 ESE 24 37 13 20 1016.4 1015.6 -
28/01:00am 15.9 11.7 12.5 80 1.9 ESE 26 43 14 23 1016.1 1015.3 -
28/12:30am 16.1 10.7 12.3 78 2.1 ESE 32 44 17 24 1016.5 1015.7 -
28/12:00am 16.5 11.0 12.5 77 2.2 ESE 33 50 18 27 1016.5 1015.7 -
 
Date/Time
EDT
Temp
°C
App
Temp
°C
Dew
Point
°C
Rel
Hum
%
Delta-T
°C
Wind Press
QNH
hPa
Press
MSL
hPa
Rain since
9am
mm
Dir  Spd
km/h
Gust
km/h
Spd
kts
Gust
kts
27/11:44pm 16.6 11.7 12.6 77 2.2 ESE 30 48 16 26 1016.8 1016.0 -
27/11:30pm 16.8 11.3 12.3 75 2.5 ESE 33 48 18 26 1016.9 1016.2 -
27/11:22pm 17.0 12.0 12.3 74 2.6 ESE 30 48 16 26 1016.9 1016.2 -
27/11:00pm 17.3 - 12.4 73 2.7 - - - - - 1017.1 1016.4 -
27/10:48pm 17.5 12.9 12.2 71 3.0 ESE 28 46 15 25 1017.1 1016.4 -
27/10:30pm 17.7 13.4 12.2 70 3.1 ESE 26 43 14 23 1016.9 1016.2 -
27/04:30pm 19.6 16.3 10.9 57 4.8 SE 19 32 10 17 1015.7 1015.0 -
27/03:00pm 18.7 14.2 8.7 52 5.3 ESE 22 33 12 18 1016.4 1015.6 0.0
27/02:30pm 18.3 14.2 7.7 50 5.5 SE 19 28 10 15 1016.6 1015.8 0.0
27/02:00pm 18.4 13.7 7.8 50 5.5 ESE 22 37 12 20 1016.7 1015.9 0.0
27/01:30pm 17.9 13.2 7.9 52 5.2 SE 22 33 12 18 1016.8 1016.0 0.0
27/01:00pm 17.9 13.9 8.2 53 5.0 SSE 19 30 10 16 1016.8 1016.0 0.0
27/12:30pm 17.1 12.3 7.2 52 5.0 SE 22 32 12 17 1016.8 1016.0 0.0
27/12:00pm 16.7 12.5 7.4 54 4.7 SE 19 33 10 18 1017.1 1016.4 0.0
27/11:30am 16.3 11.5 7.5 56 4.5 SE 22 30 12 16 1017.4 1016.7 0.0
27/11:00am 16.1 10.9 7.1 55 4.5 ESE 24 35 13 19 1017.4 1016.7 0.0
27/10:30am 14.4 9.0 6.5 59 3.9 SE 24 35 13 19 1017.4 1016.7 0.0
27/10:00am 14.2 10.2 6.8 61 3.6 SE 17 28 9 15 1017.2 1016.5 0.0
27/09:30am 13.4 8.3 6.0 61 3.6 SE 22 28 12 15 1017.2 1016.5 0.0
27/09:00am 13.2 9.1 6.3 63 3.3 SE 17 24 9 13 1016.8 1016.0 2.2
27/08:30am 12.9 9.1 6.0 63 3.3 SE 15 22 8 12 1016.6 1015.8 2.2
27/08:00am 12.7 8.2 6.1 64 3.2 SE 19 30 10 16 1016.3 1015.5 2.2
27/07:30am 12.5 8.8 6.3 66 3.0 SE 15 24 8 13 1015.8 1015.1 2.2
27/07:00am 11.5 8.9 6.2 70 2.5 SSE 9 15 5 8 1015.6 1014.9 2.2
27/06:30am 11.1 9.0 6.0 71 2.4 SSE 6 9 3 5 1015.3 1014.6 2.2
27/06:00am 11.1 8.8 5.8 70 2.5 SSE 7 11 4 6 1015.0 1014.3 2.2
27/05:30am 11.0 7.5 5.3 68 2.6 SSE 13 22 7 12 1014.7 1014.0 2.2
27/05:00am 10.5 8.4 5.7 72 2.2 SSE 6 9 3 5 1014.4 1013.7 2.2
27/04:30am 10.3 8.2 5.7 73 2.1 SSE 6 11 3 6 1013.9 1013.2 2.2
27/04:00am 10.0 7.9 5.6 74 2.0 SSE 6 7 3 4 1013.9 1013.2 2.2
27/03:30am 9.8 7.5 5.6 75 1.9 SSE 7 9 4 5 1014.0 1013.3 2.2
27/03:00am 8.9 6.7 5.1 77 1.7 SSE 6 9 3 5 1014.2 1013.5 2.2
27/02:30am 9.0 6.9 5.6 79 1.6 S 6 9 3 5 1014.1 1013.4 2.2
27/02:00am 9.5 7.3 6.0 79 1.6 S 7 11 4 6 1013.9 1013.2 2.2
27/01:30am 9.8 7.6 6.3 79 1.6 S 7 13 4 7 1013.7 1013.0 2.2
27/01:00am 10.4 8.3 6.5 77 1.9 S 7 11 4 6 1013.6 1012.9 2.2
27/12:30am 11.0 8.8 6.4 73 2.2 S 7 13 4 7 1013.7 1013.0 2.2
27/12:00am 11.9 9.1 7.0 72 2.4 S 11 19 6 10 1013.4 1012.7 2.2
 
Date/Time
EDT
Temp
°C
App
Temp
°C
Dew
Point
°C
Rel
Hum
%
Delta-T
°C
Wind Press
QNH
hPa
Press
MSL
hPa
Rain since
9am
mm
Dir  Spd
km/h
Gust
km/h
Spd
kts
Gust
kts
26/11:30pm 12.1 10.3 7.8 75 2.1 SSE 7 15 4 8 1013.1 1012.3 2.2
26/11:00pm 12.1 10.5 8.0 76 2.0 S 6 9 3 5 1013.0 1012.2 2.2
26/10:30pm 12.4 10.7 8.3 76 2.1 S 7 13 4 7 1012.9 1012.1 2.2
26/10:00pm 12.5 10.4 8.2 75 2.2 SSE 9 15 5 8 1012.8 1012.0 2.2
26/09:30pm 12.9 10.4 8.4 74 2.3 SSE 11 19 6 10 1012.2 1011.4 2.2
26/09:00pm 13.7 11.0 9.0 73 2.4 S 13 19 7 10 1011.7 1010.9 2.2
26/08:30pm 14.3 11.3 9.3 72 2.6 SSE 15 22 8 12 1011.1 1010.4 2.2
26/08:00pm 14.8 12.3 9.8 72 2.6 SSE 13 24 7 13 1010.3 1009.6 2.2
26/07:30pm 15.2 12.0 10.0 71 2.7 SSE 17 24 9 13 1009.7 1009.0 2.2
26/07:00pm 16.1 13.1 10.8 71 2.9 SSE 17 26 9 14 1009.1 1008.3 2.2
26/06:30pm 16.6 13.7 11.1 70 3.0 SSE 17 30 9 16 1008.5 1007.7 2.2
26/06:00pm 17.6 14.8 11.4 67 3.4 SSE 17 26 9 14 1007.9 1007.1 2.2
26/05:30pm 18.8 16.6 12.1 65 3.8 SSE 15 24 8 13 1007.4 1006.6 2.2
26/05:00pm 18.7 16.6 12.5 67 3.5 SE 15 22 8 12 1007.3 1006.5 2.2
26/04:30pm 19.2 18.3 12.7 66 3.7 S 9 17 5 9 1006.8 1006.1 2.2
26/04:00pm 18.4 18.3 14.9 80 2.1 SSE 9 15 5 8 1006.8 1006.1 2.2
26/03:30pm 17.8 18.3 16.5 92 0.8 ESE 9 15 5 8 1006.6 1005.9 2.2
26/03:00pm 16.1 16.7 15.3 95 0.5 E 6 7 3 4 1006.7 1006.0 2.2
26/02:30pm 15.5 15.4 14.9 96 0.3 ESE 9 13 5 7 1006.6 1005.9 2.2
26/02:00pm 15.7 16.1 15.2 97 0.3 SSE 7 15 4 8 1006.4 1005.7 2.2
26/01:30pm 15.8 16.3 15.5 98 0.2 SE 7 9 4 5 1006.4 1005.7 2.2
26/01:00pm 15.7 16.3 15.4 98 0.2 S 6 9 3 5 1006.0 1005.3 2.2
26/12:30pm 15.6 15.7 15.4 99 0.1 S 9 13 5 7 1005.7 1004.9 2.2
26/12:00pm 15.5 15.1 15.2 98 0.2 S 11 17 6 9 1005.6 1004.8 2.0
26/11:30am 15.2 15.0 14.7 97 0.3 S 9 17 5 9 1005.2 1004.4 1.8
26/11:00am 15.8 16.4 15.3 97 0.3 S 6 9 3 5 1004.8 1004.0 0.2
26/10:30am 16.7 16.7 16.2 97 0.3 WSW 11 20 6 11 1004.3 1003.5 0.0
26/10:00am 16.9 17.0 16.6 98 0.2 SW 11 19 6 10 1003.8 1003.0 0.0
26/09:30am 16.6 17.0 16.3 98 0.2 SW 9 15 5 8 1003.6 1002.8 0.0
26/09:00am 16.5 16.9 16.2 98 0.2 WSW 9 15 5 8 1003.2 1002.4 3.4
26/08:30am 16.5 16.9 16.3 99 0.1 WSW 9 15 5 8 1002.6 1001.9 3.4
26/08:00am 16.6 17.4 16.3 98 0.2 SW 7 9 4 5 1002.3 1001.6 3.4
26/07:30am 16.8 17.9 16.5 98 0.2 SW 6 7 3 4 1001.9 1001.1 3.2
26/07:00am 16.8 17.3 16.5 98 0.2 SSW 9 13 5 7 1001.3 1000.5 2.6
26/06:30am 17.1 18.0 16.6 97 0.3 SW 7 15 4 8 1000.8 1000.0 2.2
26/06:00am 17.3 16.3 16.7 96 0.4 SW 17 28 9 15 1000.2 999.4 2.0
26/05:30am 17.9 17.6 17.3 96 0.4 WSW 15 24 8 13 999.4 998.6 1.6
26/05:00am 18.2 17.1 17.4 95 0.5 W 19 28 10 15 998.8 998.0 1.6
26/04:30am 18.9 18.4 17.9 94 0.6 W 17 26 9 14 998.5 997.6 1.2
26/04:00am 19.0 18.8 17.7 92 0.8 W 15 22 8 12 998.5 997.6 1.2
26/03:30am 19.5 19.5 17.3 87 1.4 WSW 13 19 7 10 998.6 997.8 0.6
26/03:00am 19.5 20.4 16.7 84 1.7 NW 7 11 4 6 998.5 997.6 0.4
26/02:30am 18.2 19.2 15.3 83 1.7 NNW 4 6 2 3 998.6 997.8 0.4
26/02:00am 18.9 20.1 15.0 78 2.3 NNW 2 4 1 2 998.7 997.9 0.4
26/01:30am 19.1 20.3 15.0 77 2.4 N 2 4 1 2 999.3 998.5 0.4
26/01:00am 19.3 20.2 15.0 76 2.6 NNW 4 6 2 3 999.9 999.1 0.2
26/12:30am 19.5 19.1 15.2 76 2.6 NNE 11 17 6 9 999.8 999.0 0.2
26/12:00am 19.0 19.6 15.3 79 2.2 N 6 7 3 4 1000.2 999.4 0.2
 
Date/Time
EDT
Temp
°C
App
Temp
°C
Dew
Point
°C
Rel
Hum
%
Delta-T
°C
Wind Press
QNH
hPa
Press
MSL
hPa
Rain since
9am
mm
Dir  Spd
km/h
Gust
km/h
Spd
kts
Gust
kts
25/11:30pm 19.3 19.1 15.8 80 2.1 NNE 11 15 6 8 999.7 998.9 0.2
25/11:00pm 18.8 18.9 16.6 87 1.3 N 11 15 6 8 1000.7 999.9 0.2
25/10:30pm 18.6 19.0 16.4 87 1.3 NNE 9 11 5 6 1000.7 999.9 0.2
25/10:00pm 18.9 19.8 16.5 86 1.5 NNE 7 9 4 5 1001.4 1000.6 0.2
25/09:30pm 19.5 21.6 16.3 82 1.9 CALM 0 2 0 1 1001.8 1001.0 0.0
25/09:00pm 19.3 19.5 15.8 80 2.1 E 9 11 5 6 1001.5 1000.7 0.0
25/08:30pm 20.2 20.7 15.0 72 3.1 ESE 6 9 3 5 1001.8 1001.0 0.0
25/08:00pm 20.8 20.5 14.5 67 3.7 ESE 9 15 5 8 1000.7 999.9 0.0
25/07:30pm 22.2 22.2 14.3 61 4.7 SSE 7 11 4 6 1000.6 999.8 0.0
25/07:00pm 23.1 22.0 14.4 58 5.2 E 13 17 7 9 999.2 998.4 0.0
25/06:30pm 23.9 22.9 14.6 56 5.6 SE 13 17 7 9 999.3 998.5 0.0
25/06:00pm 24.8 23.9 14.9 54 6.0 ESE 13 19 7 10 999.9 999.1 0.0
25/05:30pm 24.6 23.9 14.4 53 6.1 SE 11 15 6 8 1000.6 999.8 0.0
25/05:00pm 25.5 24.8 14.3 50 6.8 SSE 11 19 6 10 1000.8 1000.0 0.0

Other formats

Comma delimited format used in spreadsheet applications
http://www.bom.gov.au/fwo/IDV60801/IDV60801.94863.axf

JavaScript Object Notation format (JSON) in row-major order
http://www.bom.gov.au/fwo/IDV60801/IDV60801.94863.json

Data quality

Most of these data are generated automatically and are frequently updated. Quality checks on data are not normally performed. It is possible for incorrect values to appear. Refer to information at About Latest Weather Observations and please check the disclaimer before using these data.